Time,TemperatureF,DewpointF,PressureIn,WindDirection,WindDirectionDegrees,WindSpeedMPH,WindSpeedGustMPH,Humidity,HourlyPrecipIn,Conditions,Clouds,dailyrainin,SolarRadiationWatts/m^2,SoftwareType,DateUTC
2013-02-07 00:02:00,57.0,57.0,-100.00,NE,53,0.0,2.0,100,0.08,,,0.23,0.000000,,2013-02-07 06:02:00,
2013-02-07 00:32:00,57.0,57.0,-100.00,East,83,3.0,5.0,100,0.03,,,0.26,0.000000,,2013-02-07 06:32:00,
2013-02-07 00:43:00,57.0,57.0,-100.00,East,83,3.0,5.0,100,0.03,,,0.26,0.000000,,2013-02-07 06:43:00,
2013-02-07 00:52:00,57.0,57.0,-100.00,East,83,3.0,5.0,100,0.03,,,0.26,0.000000,,2013-02-07 06:52:00,
2013-02-07 01:01:00,57.0,57.0,-100.00,East,83,3.0,5.0,100,0.03,,,0.26,0.000000,,2013-02-07 07:01:00,
2013-02-07 01:32:00,58.0,58.0,-100.00,SE,136,2.0,9.0,100,0.01,,,0.27,0.000000,,2013-02-07 07:32:00,
2013-02-07 01:42:00,58.0,58.0,-100.00,SE,136,2.0,9.0,100,0.01,,,0.27,0.000000,,2013-02-07 07:42:00,
2013-02-07 01:52:00,58.0,58.0,-100.00,SE,136,2.0,9.0,100,0.01,,,0.27,0.000000,,2013-02-07 07:52:00,
2013-02-07 02:01:00,58.0,58.0,-100.00,SE,136,2.0,9.0,100,0.01,,,0.27,0.000000,,2013-02-07 08:01:00,
2013-02-07 02:32:00,58.0,58.0,-100.00,ENE,71,3.0,8.0,100,0.14,,,0.41,0.000000,,2013-02-07 08:32:00,
2013-02-07 02:42:00,58.0,58.0,-100.00,ENE,71,3.0,8.0,100,0.14,,,0.41,0.000000,,2013-02-07 08:42:00,
2013-02-07 02:52:00,58.0,58.0,-100.00,ENE,71,3.0,8.0,100,0.14,,,0.41,0.000000,,2013-02-07 08:52:00,
2013-02-07 03:02:00,58.0,58.0,-100.00,ENE,71,3.0,8.0,100,0.14,,,0.41,0.000000,,2013-02-07 09:02:00,
2013-02-07 03:32:00,59.0,59.0,-100.00,East,98,7.0,13.0,100,0.24,,,0.65,0.000000,,2013-02-07 09:32:00,
2013-02-07 03:42:00,59.0,59.0,-100.00,East,98,7.0,13.0,100,0.24,,,0.65,0.000000,,2013-02-07 09:42:00,
2013-02-07 03:52:00,59.0,59.0,-100.00,East,98,7.0,13.0,100,0.24,,,0.65,0.000000,,2013-02-07 09:52:00,
2013-02-07 04:01:00,59.0,59.0,-100.00,East,98,7.0,13.0,100,0.24,,,0.65,0.000000,,2013-02-07 10:01:00,
2013-02-07 04:32:00,58.0,57.0,-100.00,ESE,109,4.0,13.0,98,0.13,,,0.78,0.000000,,2013-02-07 10:32:00,
2013-02-07 04:42:00,58.0,57.0,-100.00,ESE,109,4.0,13.0,98,0.13,,,0.78,0.000000,,2013-02-07 10:42:00,
2013-02-07 04:52:00,58.0,57.0,-100.00,ESE,109,4.0,13.0,98,0.13,,,0.78,0.000000,,2013-02-07 10:52:00,
2013-02-07 05:01:00,58.0,57.0,-100.00,ESE,109,4.0,13.0,98,0.13,,,0.78,0.000000,,2013-02-07 11:01:00,
2013-02-07 05:32:00,58.0,58.0,-100.00,ESE,119,3.0,13.0,99,0.25,,,1.03,0.000000,,2013-02-07 11:32:00,
2013-02-07 05:44:00,58.0,58.0,-100.00,ESE,119,3.0,13.0,99,0.25,,,1.03,0.000000,,2013-02-07 11:44:00,
2013-02-07 05:53:00,58.0,58.0,-100.00,ESE,119,3.0,13.0,99,0.25,,,1.03,0.000000,,2013-02-07 11:53:00,
2013-02-07 06:02:00,58.0,58.0,-100.00,ESE,119,3.0,13.0,99,0.25,,,1.03,0.000000,,2013-02-07 12:02:00,
2013-02-07 06:33:00,58.0,58.0,-100.00,ESE,111,5.0,12.0,100,0.20,,,1.23,0.000000,,2013-02-07 12:33:00,
2013-02-07 06:42:00,58.0,58.0,-100.00,ESE,111,5.0,12.0,100,0.20,,,1.23,0.000000,,2013-02-07 12:42:00,
2013-02-07 06:53:00,58.0,58.0,-100.00,ESE,111,5.0,12.0,100,0.20,,,1.23,0.000000,,2013-02-07 12:53:00,
2013-02-07 07:03:00,58.0,58.0,-100.00,ESE,111,5.0,12.0,100,0.20,,,1.23,0.000000,,2013-02-07 13:03:00,
2013-02-07 07:32:00,58.0,58.0,-100.00,East,85,3.0,16.0,100,0.01,,,1.24,1.000000,,2013-02-07 13:32:00,
2013-02-07 07:42:00,58.0,58.0,-100.00,East,85,3.0,16.0,100,0.01,,,1.24,1.000000,,2013-02-07 13:42:00,
2013-02-07 07:52:00,58.0,58.0,-100.00,East,85,3.0,16.0,100,0.01,,,1.24,1.000000,,2013-02-07 13:52:00,
2013-02-07 08:01:00,58.0,58.0,-100.00,East,85,3.0,16.0,100,0.01,,,1.24,1.000000,,2013-02-07 14:01:00,
2013-02-07 08:32:00,59.0,59.0,-100.00,NNW,341,2.0,7.0,99,0.00,,,1.24,47.000000,,2013-02-07 14:32:00,
2013-02-07 08:42:00,59.0,59.0,-100.00,NNW,341,2.0,7.0,99,0.00,,,1.24,47.000000,,2013-02-07 14:42:00,
2013-02-07 08:52:00,59.0,59.0,-100.00,NNW,341,2.0,7.0,99,0.00,,,1.24,47.000000,,2013-02-07 14:52:00,
2013-02-07 09:02:00,59.0,59.0,-100.00,NNW,341,2.0,7.0,99,0.00,,,1.24,47.000000,,2013-02-07 15:02:00,
2013-02-07 09:32:00,62.0,59.0,-100.00,NNW,345,2.0,6.0,91,0.00,,,1.24,180.000000,,2013-02-07 15:32:00,
2013-02-07 09:42:00,62.0,59.0,-100.00,NNW,345,2.0,6.0,91,0.00,,,1.24,180.000000,,2013-02-07 15:42:00,
2013-02-07 09:52:00,62.0,59.0,-100.00,NNW,345,2.0,6.0,91,0.00,,,1.24,180.000000,,2013-02-07 15:52:00,
2013-02-07 10:01:00,62.0,59.0,-100.00,NNW,345,2.0,6.0,91,0.00,,,1.24,180.000000,,2013-02-07 16:01:00,
2013-02-07 10:32:00,63.0,59.0,-100.00,NW,308,2.0,6.0,88,0.00,,,1.24,170.000000,,2013-02-07 16:32:00,
2013-02-07 10:42:00,63.0,59.0,-100.00,NW,308,2.0,6.0,88,0.00,,,1.24,170.000000,,2013-02-07 16:42:00,
2013-02-07 10:52:00,63.0,59.0,-100.00,NW,308,2.0,6.0,88,0.00,,,1.24,170.000000,,2013-02-07 16:52:00,
2013-02-07 11:01:00,63.0,59.0,-100.00,NW,308,2.0,6.0,88,0.00,,,1.24,170.000000,,2013-02-07 17:01:00,
2013-02-07 11:32:00,64.0,59.0,-100.00,WNW,302,2.0,7.0,83,0.00,,,1.24,177.000000,,2013-02-07 17:32:00,
2013-02-07 11:43:00,64.0,59.0,-100.00,WNW,302,2.0,7.0,83,0.00,,,1.24,177.000000,,2013-02-07 17:43:00,
2013-02-07 11:52:00,64.0,59.0,-100.00,WNW,302,2.0,7.0,83,0.00,,,1.24,177.000000,,2013-02-07 17:52:00,
2013-02-07 12:01:00,64.0,59.0,-100.00,WNW,302,2.0,7.0,83,0.00,,,1.24,177.000000,,2013-02-07 18:01:00,
2013-02-07 12:32:00,66.0,59.0,-100.00,WNW,295,3.0,8.0,78,0.00,,,1.24,190.000000,,2013-02-07 18:32:00,
2013-02-07 12:42:00,66.0,59.0,-100.00,WNW,295,3.0,8.0,78,0.00,,,1.24,190.000000,,2013-02-07 18:42:00,
2013-02-07 12:52:00,66.0,59.0,-100.00,WNW,295,3.0,8.0,78,0.00,,,1.24,190.000000,,2013-02-07 18:52:00,
2013-02-07 13:01:00,66.0,59.0,-100.00,WNW,295,3.0,8.0,78,0.00,,,1.24,190.000000,,2013-02-07 19:01:00,
2013-02-07 13:32:00,66.0,58.0,-100.00,NNW,344,3.0,9.0,75,0.00,,,1.24,239.000000,,2013-02-07 19:32:00,
2013-02-07 13:42:00,66.0,58.0,-100.00,NNW,344,3.0,9.0,75,0.00,,,1.24,239.000000,,2013-02-07 19:42:00,
2013-02-07 13:52:00,66.0,58.0,-100.00,NNW,344,3.0,9.0,75,0.00,,,1.24,239.000000,,2013-02-07 19:52:00,
2013-02-07 14:01:00,66.0,58.0,-100.00,NNW,344,3.0,9.0,75,0.00,,,1.24,239.000000,,2013-02-07 20:01:00,
2013-02-07 14:32:00,66.0,57.0,-100.00,NW,315,4.0,10.0,73,0.00,,,1.24,269.000000,,2013-02-07 20:32:00,
2013-02-07 14:42:00,66.0,57.0,-100.00,NW,315,4.0,10.0,73,0.00,,,1.24,269.000000,,2013-02-07 20:42:00,
2013-02-07 14:52:00,66.0,57.0,-100.00,NW,315,4.0,10.0,73,0.00,,,1.24,269.000000,,2013-02-07 20:52:00,
2013-02-07 15:02:00,66.0,57.0,-100.00,NW,315,4.0,10.0,73,0.00,,,1.24,269.000000,,2013-02-07 21:02:00,
2013-02-07 15:32:00,68.0,58.0,-100.00,NW,318,3.0,8.0,70,0.00,,,1.24,253.000000,,2013-02-07 21:32:00,
2013-02-07 15:42:00,68.0,58.0,-100.00,NW,318,3.0,8.0,70,0.00,,,1.24,253.000000,,2013-02-07 21:42:00,
2013-02-07 15:52:00,68.0,58.0,-100.00,NW,318,3.0,8.0,70,0.00,,,1.24,253.000000,,2013-02-07 21:52:00,
2013-02-07 16:02:00,68.0,58.0,-100.00,NW,318,3.0,8.0,70,0.00,,,1.24,253.000000,,2013-02-07 22:02:00,
2013-02-07 16:32:00,71.0,58.0,-100.00,NW,314,2.0,7.0,64,0.00,,,1.24,208.000000,,2013-02-07 22:32:00,
2013-02-07 16:42:00,71.0,58.0,-100.00,NW,314,2.0,7.0,64,0.00,,,1.24,208.000000,,2013-02-07 22:42:00,
2013-02-07 16:52:00,71.0,58.0,-100.00,NW,314,2.0,7.0,64,0.00,,,1.24,208.000000,,2013-02-07 22:52:00,
2013-02-07 17:01:00,71.0,58.0,-100.00,NW,314,2.0,7.0,64,0.00,,,1.24,208.000000,,2013-02-07 23:01:00,
2013-02-07 17:32:00,65.0,57.0,-100.00,SW,230,0.0,7.0,76,0.00,,,1.24,128.000000,,2013-02-07 23:32:00,
2013-02-07 17:42:00,65.0,57.0,-100.00,SW,230,0.0,7.0,76,0.00,,,1.24,128.000000,,2013-02-07 23:42:00,
2013-02-07 17:52:00,65.0,57.0,-100.00,SW,230,0.0,7.0,76,0.00,,,1.24,128.000000,,2013-02-07 23:52:00,
2013-02-07 18:01:00,65.0,57.0,-100.00,SW,230,0.0,7.0,76,0.00,,,1.24,128.000000,,2013-02-08 00:01:00,
2013-02-07 20:32:00,55.0,54.0,-100.00,SW,236,0.0,2.0,97,-99.99,,,1.23,0.000000,,2013-02-08 02:32:00,
2013-02-07 20:42:00,55.0,54.0,-100.00,SW,236,0.0,2.0,97,-99.99,,,1.23,0.000000,,2013-02-08 02:42:00,
2013-02-07 20:52:00,55.0,54.0,-100.00,SW,236,0.0,2.0,97,-99.99,,,1.23,0.000000,,2013-02-08 02:52:00,
2013-02-07 21:01:00,55.0,54.0,-100.00,SW,236,0.0,2.0,97,-99.99,,,1.23,0.000000,,2013-02-08 03:01:00,
2013-02-07 21:32:00,54.0,53.0,-100.00,SW,221,0.0,3.0,98,0.00,,,1.17,0.000000,,2013-02-08 03:32:00,
2013-02-07 21:42:00,54.0,53.0,-100.00,SW,221,0.0,3.0,98,0.00,,,1.17,0.000000,,2013-02-08 03:42:00,
2013-02-07 21:52:00,54.0,53.0,-100.00,SW,221,0.0,3.0,98,0.00,,,1.17,0.000000,,2013-02-08 03:52:00,
2013-02-07 22:01:00,54.0,53.0,-100.00,SW,221,0.0,3.0,98,0.00,,,1.17,0.000000,,2013-02-08 04:01:00,
2013-02-07 22:32:00,53.0,53.0,-100.00,WSW,257,0.0,3.0,99,0.00,,,1.09,0.000000,,2013-02-08 04:32:00,
2013-02-07 22:42:00,53.0,53.0,-100.00,WSW,257,0.0,3.0,99,0.00,,,1.09,0.000000,,2013-02-08 04:42:00,
2013-02-07 22:52:00,53.0,53.0,-100.00,WSW,257,0.0,3.0,99,0.00,,,1.09,0.000000,,2013-02-08 04:52:00,
2013-02-07 23:02:00,53.0,53.0,-100.00,WSW,257,0.0,3.0,99,0.00,,,1.09,0.000000,,2013-02-08 05:02:00,
2013-02-07 23:32:00,54.0,54.0,-100.00,SW,234,0.0,2.0,100,0.00,,,1.01,0.000000,,2013-02-08 05:32:00,
2013-02-07 23:42:00,54.0,54.0,-100.00,SW,234,0.0,2.0,100,0.00,,,1.01,0.000000,,2013-02-08 05:42:00,
2013-02-07 23:52:00,54.0,54.0,-100.00,SW,234,0.0,2.0,100,0.00,,,1.01,0.000000,,2013-02-08 05:52:00,